Time;durP1;ratioP1;P1;durP2;ratioP2;P2;SDS_P1;SDS_P2;PMS_P1;PMS_P2;Temp;Humidity;BMP_temperature;BMP_pressure;BME280_temperature;BME280_humidity;BME280_pressure;Samples;Min_cycle;Max_cycle;Signal;HPM_P1;HPM_P2
2021/04/06 00:00:12;;;;;;;3.33;1.13;;;5.50;90.70;5.60;99482.00;;;;342892;28;84520;-94
2021/04/06 00:00:28;;;;;;;2.22;1.27;;;5.40;90.60;5.70;99479.00;;;;344323;28;86596;-95
2021/04/06 00:00:45;;;;;;;3.00;1.33;;;5.40;90.60;5.70;99481.00;;;;340101;28;84422;-94
2021/04/06 00:00:59;;;;;;;2.90;1.50;;;5.40;90.70;5.70;99476.00;;;;341580;28;86239;-94
2021/04/06 00:01:15;;;;;;;3.25;1.75;;;5.40;90.80;5.80;99474.00;;;;340726;28;86189;-94
2021/04/06 00:01:48;;;;;;;2.33;1.20;;;5.40;90.70;5.80;99478.00;;;;341599;28;86482;-94
2021/04/06 00:02:11;;;;;;;4.85;1.50;;;5.40;90.70;5.70;99468.00;;;;342933;28;84220;-94
2021/04/06 00:02:22;;;;;;;2.65;1.27;;;5.40;90.50;5.70;99477.00;;;;342966;28;86105;-94
2021/04/06 00:02:34;;;;;;;3.10;1.70;;;5.40;90.40;5.80;99480.00;;;;344341;28;83627;-94
2021/04/06 00:02:49;;;;;;;5.70;1.75;;;5.40;90.40;5.60;99469.00;;;;344281;28;87800;-94
2021/04/06 00:03:01;;;;;;;5.07;1.52;;;5.40;90.40;5.70;99471.00;;;;345720;28;83425;-94
2021/04/06 00:03:15;;;;;;;2.63;1.40;;;5.40;90.40;5.70;99471.00;;;;345645;28;86743;-93
2021/04/06 00:03:28;;;;;;;2.75;1.23;;;5.40;90.40;5.80;99473.00;;;;341506;28;85104;-93
2021/04/06 00:03:40;;;;;;;3.40;1.40;;;5.40;90.50;5.70;99479.00;;;;346862;28;87186;-94
2021/04/06 00:03:51;;;;;;;3.55;1.40;;;5.40;90.20;5.80;99470.00;;;;343031;28;83814;-94
2021/04/06 00:04:06;;;;;;;3.17;1.55;;;5.40;90.30;5.80;99475.00;;;;344055;28;88295;-93
2021/04/06 00:04:21;;;;;;;2.50;1.48;;;5.40;90.40;5.80;99473.00;;;;345703;28;84909;-93
2021/04/06 00:04:33;;;;;;;2.92;1.38;;;5.40;90.30;5.80;99468.00;;;;341869;28;88129;-94
2021/04/06 00:04:47;;;;;;;3.45;1.40;;;5.50;90.20;5.90;99477.00;;;;341541;28;83776;-94
2021/04/06 00:05:01;;;;;;;4.32;1.30;;;5.50;90.20;5.90;99477.00;;;;344259;28;87189;-93
2021/04/06 00:05:12;;;;;;;3.33;1.08;;;5.50;90.20;5.90;99483.00;;;;342675;28;84126;-94
2021/04/06 00:05:24;;;;;;;2.55;1.15;;;5.50;90.30;6.00;99474.00;;;;342700;28;86675;-93
2021/04/06 00:05:36;;;;;;;2.55;1.20;;;5.50;90.30;5.80;99471.00;;;;341569;28;83398;-93
2021/04/06 00:05:51;;;;;;;2.90;1.40;;;5.50;90.00;5.80;99463.00;;;;344396;28;86691;-94
2021/04/06 00:06:03;;;;;;;2.53;1.38;;;5.50;89.90;5.80;99479.00;;;;342820;28;83444;-93
2021/04/06 00:06:14;;;;;;;2.60;1.20;;;5.50;89.30;5.80;99473.00;;;;342794;28;87488;-94
2021/04/06 00:06:25;;;;;;;2.63;1.25;;;5.50;89.30;5.80;99470.00;;;;341616;28;83486;-94
2021/04/06 00:06:39;;;;;;;2.38;1.20;;;5.40;89.30;5.80;99460.00;;;;342916;28;86621;-94
2021/04/06 00:06:58;;;;;;;2.13;1.17;;;5.40;89.20;5.80;99482.00;;;;344375;28;83317;-94
2021/04/06 00:07:12;;;;;;;3.08;1.27;;;5.50;89.20;5.80;99470.00;;;;343628;28;86841;-93
2021/04/06 00:07:24;;;;;;;3.15;1.30;;;5.40;89.20;5.70;99476.00;;;;343984;28;85218;-94
2021/04/06 00:07:37;;;;;;;2.56;1.14;;;5.40;89.70;5.80;99473.00;;;;342221;28;87543;-93
2021/04/06 00:07:49;;;;;;;2.28;1.20;;;5.40;89.80;5.80;99478.00;;;;341688;28;84286;-94
2021/04/06 00:08:01;;;;;;;2.00;1.50;;;5.40;89.90;5.80;99479.00;;;;341478;28;87003;-94
2021/04/06 00:08:12;;;;;;;2.88;1.60;;;5.50;89.70;5.70;99483.00;;;;344221;28;84559;-94
2021/04/06 00:08:24;;;;;;;2.40;1.10;;;5.50;90.00;5.80;99480.00;;;;341582;28;87211;-94
2021/04/06 00:08:36;;;;;;;1.75;0.82;;;5.50;89.60;5.80;99490.00;;;;344147;28;83489;-94
2021/04/06 00:08:47;;;;;;;2.15;1.02;;;5.50;89.80;5.70;99482.00;;;;340054;28;87342;-94
2021/04/06 00:08:59;;;;;;;2.65;1.30;;;5.40;89.80;5.80;99474.00;;;;341592;28;85094;-94
2021/04/06 00:09:22;;;;;;;3.03;1.35;;;5.50;90.00;6.00;99481.00;;;;342785;28;87837;-94
2021/04/06 00:09:33;;;;;;;2.47;1.02;;;5.50;90.00;6.00;99480.00;;;;345511;28;85152;-93
2021/04/06 00:09:50;;;;;;;1.77;0.90;;;5.50;90.00;5.90;99477.00;;;;340008;28;87976;-94
2021/04/06 00:10:33;;;;;;;2.40;1.10;;;5.50;90.00;5.90;99483.00;;;;342521;28;83707;-94
2021/04/06 00:10:51;;;;;;;3.08;1.17;;;5.50;89.60;5.90;99485.00;;;;340051;28;86456;-93
2021/04/06 00:11:03;;;;;;;3.45;1.13;;;5.50;89.70;6.00;99483.00;;;;344274;28;83543;-94
2021/04/06 00:11:15;;;;;;;3.30;1.40;;;5.60;89.70;6.00;99483.00;;;;344141;28;87494;-94
2021/04/06 00:11:26;;;;;;;4.53;1.70;;;5.60;90.00;6.00;99487.00;;;;340166;28;83441;-94
2021/04/06 00:11:41;;;;;;;4.82;1.60;;;5.60;90.00;6.10;99484.00;;;;344161;28;87859;-94
2021/04/06 00:12:05;;;;;;;3.92;1.15;;;5.60;90.00;5.90;99491.00;;;;347058;28;83452;-94
2021/04/06 00:12:16;;;;;;;1.85;0.82;;;5.60;89.70;6.00;99488.00;;;;345351;28;87691;-93
2021/04/06 00:12:28;;;;;;;1.77;0.90;;;5.60;89.70;5.90;99484.00;;;;342954;28;83462;-94
2021/04/06 00:12:40;;;;;;;2.90;1.00;;;5.60;89.80;6.00;99482.00;;;;342873;28;84347;-93
2021/04/06 00:12:52;;;;;;;2.88;1.00;;;5.60;89.70;5.90;99485.00;;;;344280;28;84951;-95
2021/04/06 00:13:04;;;;;;;2.15;0.93;;;5.60;90.00;5.90;99496.00;;;;342861;28;86370;-94
2021/04/06 00:13:16;;;;;;;2.00;1.00;;;5.60;89.90;5.90;99486.00;;;;340371;28;83907;-93
2021/04/06 00:13:32;;;;;;;2.42;1.05;;;5.60;89.70;5.90;99488.00;;;;344193;28;87269;-93
2021/04/06 00:13:44;;;;;;;4.70;1.45;;;5.60;89.70;5.90;99479.00;;;;341414;28;84778;-94
2021/04/06 00:13:56;;;;;;;5.68;1.58;;;5.60;89.80;5.90;99488.00;;;;344270;28;87274;-94
2021/04/06 00:14:09;;;;;;;3.85;1.20;;;5.60;89.80;6.00;99480.00;;;;341869;28;83975;-94
2021/04/06 00:14:21;;;;;;;2.75;1.20;;;5.60;89.80;6.00;99488.00;;;;341510;28;87795;-94
2021/04/06 00:14:32;;;;;;;2.15;0.93;;;5.60;89.80;6.10;99479.00;;;;341561;28;84379;-94
2021/04/06 00:14:44;;;;;;;3.33;0.93;;;5.60;89.80;6.00;99476.00;;;;344120;28;88064;-94
2021/04/06 00:14:56;;;;;;;3.33;1.05;;;5.70;90.00;6.00;99481.00;;;;344406;28;83332;-94
2021/04/06 00:15:09;;;;;;;3.38;1.25;;;5.60;89.70;6.00;99480.00;;;;342930;28;87678;-93
2021/04/06 00:15:21;;;;;;;3.00;1.52;;;5.70;89.70;6.00;99481.00;;;;341536;28;85349;-93
2021/04/06 00:15:36;;;;;;;3.63;1.30;;;5.70;89.60;6.00;99471.00;;;;342716;28;86921;-93
2021/04/06 00:15:48;;;;;;;3.47;1.00;;;5.70;89.20;6.00;99479.00;;;;342865;28;83868;-94
2021/04/06 00:16:02;;;;;;;2.35;1.00;;;5.70;89.00;6.00;99474.00;;;;344031;28;87286;-94
2021/04/06 00:16:13;;;;;;;2.63;1.23;;;5.70;88.90;6.00;99477.00;;;;342683;28;84468;-93
2021/04/06 00:16:25;;;;;;;3.08;1.35;;;5.70;88.90;6.00;99481.00;;;;344048;28;88010;-93
2021/04/06 00:16:36;;;;;;;3.22;1.20;;;5.70;88.90;6.00;99478.00;;;;344479;28;84760;-94
2021/04/06 00:16:48;;;;;;;3.10;1.00;;;5.70;88.90;6.00;99481.00;;;;342913;28;86824;-93
2021/04/06 00:17:00;;;;;;;2.84;1.00;;;5.70;88.70;6.00;99479.00;;;;342973;28;83993;-94
2021/04/06 00:17:13;;;;;;;3.00;1.00;;;5.70;88.20;6.00;99478.00;;;;344337;28;86996;-93
2021/04/06 00:17:24;;;;;;;3.92;1.10;;;5.70;88.00;6.00;99482.00;;;;342849;28;83851;-94
2021/04/06 00:17:36;;;;;;;3.40;0.90;;;5.70;88.00;5.90;99480.00;;;;344124;28;87921;-93
2021/04/06 00:17:48;;;;;;;3.00;0.90;;;5.70;88.00;6.00;99482.00;;;;342900;28;83986;-94
2021/04/06 00:18:01;;;;;;;2.45;1.00;;;5.70;88.00;6.10;99483.00;;;;342562;28;86693;-94
2021/04/06 00:18:17;;;;;;;2.26;0.94;;;5.70;88.30;6.10;99486.00;;;;342953;28;85065;-94
2021/04/06 00:18:29;;;;;;;2.80;1.05;;;5.70;88.20;6.10;99491.00;;;;342880;28;87891;-93
2021/04/06 00:18:41;;;;;;;3.20;1.40;;;5.70;88.00;6.00;99478.00;;;;344168;28;83850;-93
2021/04/06 00:18:52;;;;;;;2.65;1.30;;;5.70;87.70;6.10;99490.00;;;;342835;28;88246;-94
2021/04/06 00:19:04;;;;;;;1.55;0.90;;;5.70;87.70;6.10;99480.00;;;;342962;28;84399;-94
2021/04/06 00:19:20;;;;;;;1.73;0.93;;;5.70;88.20;5.90;99490.00;;;;340187;28;86967;-93
2021/04/06 00:19:33;;;;;;;1.88;0.90;;;5.70;87.30;5.90;99484.00;;;;345500;28;84422;-93
2021/04/06 00:19:45;;;;;;;2.40;0.80;;;5.70;87.00;5.90;99485.00;;;;345564;28;88442;-94
2021/04/06 00:19:57;;;;;;;3.55;1.00;;;5.70;86.80;6.00;99484.00;;;;346929;28;84177;-93
2021/04/06 00:20:09;;;;;;;3.60;1.15;;;5.70;87.00;6.00;99494.00;;;;347501;27;86018;-94
2021/04/06 00:20:20;;;;;;;3.10;1.13;;;5.70;87.00;6.00;99472.00;;;;341580;28;83411;-93
2021/04/06 00:20:33;;;;;;;2.08;1.15;;;5.70;86.60;5.90;99486.00;;;;345617;28;87052;-93
2021/04/06 00:20:46;;;;;;;2.08;1.30;;;5.70;86.50;5.90;99479.00;;;;344101;28;84941;-93
2021/04/06 00:20:58;;;;;;;2.08;1.23;;;5.70;86.50;6.00;99481.00;;;;344106;28;86507;-94
2021/04/06 00:21:10;;;;;;;2.45;1.17;;;5.70;86.30;6.00;99482.00;;;;342935;28;84153;-93
2021/04/06 00:21:21;;;;;;;2.80;1.15;;;5.70;86.20;5.90;99480.00;;;;344075;28;86897;-93
2021/04/06 00:21:33;;;;;;;3.17;1.02;;;5.70;85.80;5.90;99474.00;;;;342710;28;83472;-94
2021/04/06 00:21:47;;;;;;;3.33;1.08;;;5.70;85.80;5.90;99475.00;;;;345644;28;86312;-94
2021/04/06 00:22:01;;;;;;;2.97;1.02;;;5.70;85.80;6.00;99479.00;;;;345442;28;85139;-93
2021/04/06 00:22:15;;;;;;;2.75;0.88;;;5.70;86.00;5.90;99481.00;;;;343783;28;86083;-93
2021/04/06 00:22:27;;;;;;;3.00;0.90;;;5.70;85.90;5.80;99481.00;;;;341526;28;85042;-94
2021/04/06 00:22:39;;;;;;;2.75;0.93;;;5.70;85.80;5.80;99487.00;;;;343924;28;88219;-94
2021/04/06 00:22:51;;;;;;;2.63;1.00;;;5.70;86.00;5.90;99479.00;;;;341508;28;83694;-94
2021/04/06 00:23:03;;;;;;;2.20;0.90;;;5.60;85.80;5.90;99481.00;;;;344290;28;87434;-93
2021/04/06 00:23:14;;;;;;;2.30;0.80;;;5.60;85.80;5.90;99482.00;;;;342941;28;83701;-93
2021/04/06 00:23:26;;;;;;;3.50;1.00;;;5.60;85.60;5.90;99483.00;;;;341601;28;86196;-94
2021/04/06 00:23:37;;;;;;;4.30;1.20;;;5.60;85.40;5.80;99472.00;;;;341536;28;84416;-93
2021/04/06 00:23:49;;;;;;;5.10;1.27;;;5.60;85.20;5.80;99480.00;;;;342865;28;88144;-93
2021/04/06 00:24:01;;;;;;;3.72;1.17;;;5.60;84.70;5.70;99470.00;;;;341552;28;83737;-95
2021/04/06 00:24:12;;;;;;;2.55;1.10;;;5.60;84.40;5.80;99484.00;;;;342815;28;87772;-94
2021/04/06 00:24:27;;;;;;;3.00;1.15;;;5.60;84.30;5.70;99469.00;;;;344296;28;83783;-94
2021/04/06 00:24:41;;;;;;;3.17;1.20;;;5.60;84.20;5.70;99483.00;;;;341428;28;88272;-94
2021/04/06 00:24:52;;;;;;;3.92;1.20;;;5.60;84.40;5.60;99480.00;;;;342828;28;85066;-93
2021/04/06 00:25:07;;;;;;;5.10;1.13;;;5.50;84.40;5.70;99477.00;;;;341290;28;87707;-93
2021/04/06 00:25:25;;;;;;;4.05;1.00;;;5.50;84.40;5.80;99482.00;;;;343393;28;84833;-93
2021/04/06 00:25:40;;;;;;;2.38;0.70;;;5.50;84.80;5.70;99482.00;;;;343137;28;87918;-93
2021/04/06 00:25:51;;;;;;;4.25;1.05;;;5.50;84.90;5.70;99489.00;;;;344116;28;84065;-94
2021/04/06 00:26:02;;;;;;;4.03;1.25;;;5.50;85.00;5.80;99483.00;;;;341292;28;87967;-93
2021/04/06 00:26:14;;;;;;;3.40;1.00;;;5.50;85.10;5.80;99482.00;;;;344331;28;83908;-94
2021/04/06 00:26:48;;;;;;;2.15;0.80;;;5.50;85.10;5.60;99480.00;;;;344215;28;86912;-93
2021/04/06 00:27:14;;;;;;;4.65;1.25;;;5.50;85.00;5.70;99476.00;;;;342946;28;84919;-93
2021/04/06 00:27:37;;;;;;;4.35;1.30;;;5.40;85.20;5.70;99482.00;;;;342729;28;88157;-94
2021/04/06 00:27:51;;;;;;;1.92;0.88;;;5.40;85.60;5.60;99476.00;;;;344074;28;82590;-94
2021/04/06 00:28:05;;;;;;;2.40;1.60;;;5.40;85.60;5.70;99474.00;;;;345311;28;88147;-94
2021/04/06 00:28:20;;;;;;;3.10;1.70;;;5.40;85.40;5.60;99490.00;;;;343827;28;82573;-93
2021/04/06 00:28:34;;;;;;;3.65;1.10;;;5.40;85.10;5.70;99487.00;;;;342887;28;84246;-94
2021/04/06 00:28:46;;;;;;;3.88;1.05;;;5.40;85.10;5.70;99491.00;;;;341389;28;83674;-94
2021/04/06 00:28:58;;;;;;;2.85;1.00;;;5.40;85.10;5.70;99474.00;;;;342845;28;88020;-94
2021/04/06 00:29:09;;;;;;;2.72;1.10;;;5.40;85.00;5.60;99485.00;;;;342832;28;84074;-94
2021/04/06 00:29:24;;;;;;;2.45;0.88;;;5.40;85.20;5.60;99498.00;;;;344057;28;88236;-93
2021/04/06 00:29:36;;;;;;;3.50;1.02;;;5.40;85.30;5.70;99489.00;;;;344227;28;84666;-93
2021/04/06 00:29:56;;;;;;;3.35;1.08;;;5.40;85.20;5.70;99486.00;;;;344271;28;86560;-93
2021/04/06 00:30:14;;;;;;;2.53;1.08;;;5.40;85.30;5.50;99486.00;;;;344216;28;84806;-93
2021/04/06 00:30:30;;;;;;;3.60;1.50;;;5.30;84.30;5.60;99486.00;;;;344272;28;86609;-92
2021/04/06 00:30:42;;;;;;;4.68;1.75;;;5.30;83.90;5.60;99491.00;;;;344114;28;85123;-94
2021/04/06 00:30:54;;;;;;;5.57;1.80;;;5.30;83.70;5.60;99487.00;;;;345416;28;88103;-94
2021/04/06 00:31:05;;;;;;;5.22;1.70;;;5.30;83.60;5.60;99485.00;;;;344153;28;83364;-93
2021/04/06 00:31:17;;;;;;;3.83;1.33;;;5.30;83.50;5.40;99493.00;;;;341378;28;87079;-94
2021/04/06 00:31:28;;;;;;;4.18;1.20;;;5.30;83.40;5.60;99490.00;;;;345646;28;84338;-94
2021/04/06 00:31:48;;;;;;;3.65;1.40;;;5.30;84.10;5.60;99494.00;;;;342849;28;86893;-93
2021/04/06 00:32:00;;;;;;;2.60;1.00;;;5.30;83.70;5.50;99496.00;;;;344025;28;85177;-93
2021/04/06 00:32:13;;;;;;;2.67;1.00;;;5.20;83.40;5.50;99490.00;;;;342778;28;85984;-94
2021/04/06 00:32:26;;;;;;;2.92;1.08;;;5.30;83.40;5.50;99495.00;;;;342992;28;83457;-93
2021/04/06 00:32:37;;;;;;;2.90;1.10;;;5.20;83.50;5.60;99490.00;;;;342828;28;87886;-94
2021/04/06 00:32:58;;;;;;;2.63;1.00;;;5.30;83.60;5.50;99500.00;;;;344217;28;83877;-93
2021/04/06 00:33:12;;;;;;;3.58;1.27;;;5.30;83.80;5.50;99499.00;;;;341473;28;87382;-94
2021/04/06 00:33:44;;;;;;;5.35;1.38;;;5.20;83.60;5.40;99505.00;;;;341385;28;85165;-94
2021/04/06 00:33:56;;;;;;;2.45;1.10;;;5.20;83.50;5.50;99502.00;;;;344167;28;86498;-93
2021/04/06 00:34:08;;;;;;;2.53;1.30;;;5.20;83.50;5.50;99496.00;;;;346150;28;83598;-94
2021/04/06 00:34:21;;;;;;;2.28;1.05;;;5.20;83.40;5.40;99496.00;;;;343539;28;87534;-93
2021/04/06 00:34:33;;;;;;;2.58;0.82;;;5.20;83.20;5.50;99505.00;;;;345555;28;83641;-94
2021/04/06 00:34:44;;;;;;;2.45;0.80;;;5.20;83.40;5.60;99498.00;;;;341119;28;87494;-93
2021/04/06 00:35:00;;;;;;;2.47;0.90;;;5.20;83.30;5.60;99488.00;;;;342937;28;84704;-93
2021/04/06 00:35:12;;;;;;;4.10;1.20;;;5.20;83.40;5.50;99506.00;;;;341509;28;88245;-93
2021/04/06 00:35:28;;;;;;;4.40;1.48;;;5.20;83.20;5.60;99502.00;;;;344216;28;83525;-93
2021/04/06 00:35:39;;;;;;;4.38;2.17;;;5.20;83.40;5.60;99503.00;;;;341419;28;86421;-94
2021/04/06 00:35:56;;;;;;;4.70;2.15;;;5.20;83.40;5.50;99507.00;;;;344451;28;82418;-94
2021/04/06 00:36:08;;;;;;;4.05;1.58;;;5.20;83.40;5.50;99495.00;;;;341325;28;88242;-93
2021/04/06 00:36:26;;;;;;;3.20;1.25;;;5.20;83.30;5.40;99501.00;;;;341398;28;83947;-94
2021/04/06 00:36:37;;;;;;;2.80;1.42;;;5.20;83.20;5.40;99506.00;;;;342809;28;87426;-93
2021/04/06 00:36:56;;;;;;;3.28;1.58;;;5.20;83.10;5.60;99495.00;;;;342607;28;84355;-94
2021/04/06 00:37:16;;;;;;;3.83;1.25;;;5.20;83.20;5.50;99494.00;;;;343636;28;84496;-95
2021/04/06 00:37:28;;;;;;;6.03;1.30;;;5.20;83.10;5.60;99502.00;;;;342743;28;85297;-94
2021/04/06 00:37:47;;;;;;;5.03;1.25;;;5.20;82.60;5.50;99498.00;;;;346816;28;86860;-94
2021/04/06 00:37:59;;;;;;;2.67;1.10;;;5.20;82.40;5.60;99503.00;;;;342754;28;85033;-94
2021/04/06 00:38:12;;;;;;;2.88;1.27;;;5.20;82.50;5.60;99496.00;;;;342862;28;87450;-93
2021/04/06 00:38:26;;;;;;;3.20;1.48;;;5.20;82.60;5.60;99493.00;;;;340206;28;83607;-94
2021/04/06 00:38:40;;;;;;;3.88;1.55;;;5.20;82.70;5.60;99499.00;;;;345445;28;87358;-93
2021/04/06 00:38:52;;;;;;;5.30;1.48;;;5.20;82.60;5.60;99493.00;;;;341477;28;85294;-94
2021/04/06 00:39:04;;;;;;;5.93;1.60;;;5.30;82.70;5.60;99497.00;;;;342792;28;88224;-94
2021/04/06 00:39:15;;;;;;;6.00;1.17;;;5.20;82.70;5.60;99494.00;;;;340220;28;83707;-93
2021/04/06 00:39:34;;;;;;;4.50;1.30;;;5.30;82.60;5.60;99482.00;;;;342150;28;87523;-93
2021/04/06 00:39:45;;;;;;;2.63;1.13;;;5.30;82.50;5.70;99499.00;;;;342672;28;84468;-93
2021/04/06 00:40:10;;;;;;;3.15;1.10;;;5.30;82.60;5.80;99499.00;;;;340101;28;86501;-94
2021/04/06 00:40:21;;;;;;;3.30;1.02;;;5.30;82.80;5.80;99497.00;;;;344278;28;82477;-93
2021/04/06 00:40:35;;;;;;;4.43;1.50;;;5.30;83.30;5.60;99490.00;;;;344117;28;87553;-94
2021/04/06 00:40:48;;;;;;;4.60;1.50;;;5.30;82.70;5.70;99490.00;;;;342881;28;83408;-94
2021/04/06 00:41:03;;;;;;;3.83;1.25;;;5.30;82.70;5.80;99491.00;;;;342871;28;86824;-94
2021/04/06 00:41:15;;;;;;;3.38;0.95;;;5.30;82.60;5.80;99489.00;;;;344234;28;83726;-93
2021/04/06 00:41:26;;;;;;;3.83;1.10;;;5.40;82.70;5.90;99483.00;;;;340131;28;88270;-94
2021/04/06 00:41:38;;;;;;;3.90;1.15;;;5.40;82.70;5.90;99489.00;;;;344206;28;84704;-93
2021/04/06 00:41:50;;;;;;;3.75;0.95;;;5.40;82.50;5.90;99489.00;;;;338888;28;86405;-94
2021/04/06 00:42:13;;;;;;;3.92;1.10;;;5.50;82.70;5.90;99494.00;;;;344234;28;83658;-94
2021/04/06 00:42:27;;;;;;;2.58;1.10;;;5.50;82.50;5.80;99484.00;;;;344221;28;88068;-94
2021/04/06 00:42:39;;;;;;;4.35;1.15;;;5.50;81.80;5.90;99483.00;;;;342728;28;84771;-94
2021/04/06 00:42:58;;;;;;;4.55;0.90;;;5.50;81.90;5.90;99489.00;;;;342571;28;87509;-93
2021/04/06 00:43:09;;;;;;;4.15;1.10;;;5.50;81.70;5.90;99487.00;;;;342420;28;85074;-94
2021/04/06 00:43:20;;;;;;;5.07;1.27;;;5.50;82.00;5.90;99477.00;;;;341598;28;85451;-93
2021/04/06 00:43:34;;;;;;;4.00;1.05;;;5.50;81.90;5.90;99484.00;;;;341557;28;83625;-94
2021/04/06 00:43:46;;;;;;;3.75;0.98;;;5.50;81.40;5.90;99486.00;;;;340248;28;87730;-94
2021/04/06 00:43:58;;;;;;;3.75;1.50;;;5.50;81.30;5.90;99481.00;;;;344180;28;84840;-94
2021/04/06 00:44:13;;;;;;;5.00;1.70;;;5.50;81.40;5.90;99482.00;;;;342544;28;85161;-94
2021/04/06 00:44:25;;;;;;;5.38;1.60;;;5.50;82.00;5.90;99487.00;;;;341589;28;83769;-94
2021/04/06 00:44:42;;;;;;;4.30;1.55;;;5.50;81.30;5.90;99490.00;;;;346972;28;87012;-94
2021/04/06 00:45:08;;;;;;;3.40;1.25;;;5.50;81.00;5.80;99490.00;;;;342964;28;83420;-93
2021/04/06 00:45:21;;;;;;;2.85;1.65;;;5.50;80.60;5.80;99481.00;;;;342590;28;88460;-93
2021/04/06 00:45:36;;;;;;;2.47;1.48;;;5.60;80.40;5.80;99481.00;;;;344351;28;83635;-94
2021/04/06 00:45:47;;;;;;;3.05;1.15;;;5.50;80.20;5.90;99475.00;;;;338837;28;88070;-93
2021/04/06 00:45:59;;;;;;;3.25;1.00;;;5.50;80.20;5.80;99484.00;;;;342846;28;83845;-93
2021/04/06 00:46:27;;;;;;;3.95;1.08;;;5.60;80.10;5.70;99485.00;;;;339724;28;86012;-94
2021/04/06 00:46:40;;;;;;;3.97;0.90;;;5.60;80.20;5.80;99479.00;;;;344009;28;83439;-93
2021/04/06 00:46:51;;;;;;;4.15;0.93;;;5.50;80.00;5.70;99490.00;;;;344352;28;86487;-94
2021/04/06 00:47:03;;;;;;;4.20;0.95;;;5.50;80.00;5.70;99487.00;;;;342791;28;83872;-93
2021/04/06 00:47:15;;;;;;;3.83;0.95;;;5.50;79.80;5.80;99472.00;;;;344303;28;86361;-93
2021/04/06 00:47:28;;;;;;;3.83;1.08;;;5.50;80.00;5.80;99478.00;;;;345570;28;84573;-93
2021/04/06 00:47:40;;;;;;;4.50;1.40;;;5.40;80.10;5.70;99486.00;;;;345624;28;87886;-94
2021/04/06 00:48:02;;;;;;;4.95;1.60;;;5.50;80.00;5.70;99488.00;;;;345688;28;85133;-93
2021/04/06 00:48:20;;;;;;;4.43;1.17;;;5.40;79.80;5.70;99489.00;;;;342845;28;88760;-94
2021/04/06 00:48:31;;;;;;;2.35;0.82;;;5.40;79.80;5.80;99487.00;;;;342869;28;85176;-93
2021/04/06 00:48:47;;;;;;;3.50;1.40;;;5.40;80.20;5.70;99483.00;;;;344115;28;87069;-94
2021/04/06 00:48:59;;;;;;;3.95;1.58;;;5.40;80.80;5.60;99485.00;;;;344114;28;83942;-93
2021/04/06 00:49:11;;;;;;;3.08;1.30;;;5.40;79.80;5.70;99491.00;;;;343296;28;87654;-93
2021/04/06 00:49:23;;;;;;;3.63;1.30;;;5.40;79.90;5.70;99485.00;;;;344303;28;84349;-94
2021/04/06 00:49:34;;;;;;;3.83;1.10;;;5.40;80.00;5.70;99491.00;;;;341589;28;86325;-93
2021/04/06 00:49:46;;;;;;;4.15;1.35;;;5.50;80.20;5.70;99492.00;;;;342978;28;83506;-94
2021/04/06 00:50:03;;;;;;;4.28;1.60;;;5.40;80.00;5.60;99489.00;;;;344181;28;86382;-92
2021/04/06 00:50:15;;;;;;;3.85;1.67;;;5.40;79.80;5.60;99479.00;;;;341576;28;84066;-93
2021/04/06 00:50:34;;;;;;;3.95;1.40;;;5.40;79.50;5.60;99488.00;;;;341418;28;85407;-93
2021/04/06 00:51:13;;;;;;;4.65;1.10;;;5.40;79.50;5.70;99494.00;;;;344404;28;84697;-93
2021/04/06 00:51:25;;;;;;;3.47;0.95;;;5.40;79.70;5.70;99484.00;;;;344492;28;85651;-94
2021/04/06 00:51:40;;;;;;;3.22;0.95;;;5.40;79.70;5.70;99490.00;;;;342113;28;83676;-93
2021/04/06 00:51:51;;;;;;;4.93;1.20;;;5.40;79.70;5.80;99488.00;;;;343434;28;86657;-94
2021/04/06 00:52:04;;;;;;;4.18;1.08;;;5.40;79.80;5.60;99488.00;;;;344922;28;83430;-93
2021/04/06 00:52:16;;;;;;;4.43;1.13;;;5.40;79.60;5.60;99487.00;;;;343265;28;87640;-93
2021/04/06 00:52:28;;;;;;;4.45;1.20;;;5.40;79.40;5.70;99482.00;;;;344833;28;82372;-93
2021/04/06 00:52:46;;;;;;;3.88;1.25;;;5.40;79.50;5.60;99486.00;;;;347394;28;86257;-93
2021/04/06 00:52:58;;;;;;;3.63;1.17;;;5.40;79.50;5.50;99482.00;;;;342022;28;84816;-93
2021/04/06 00:53:09;;;;;;;2.55;1.00;;;5.30;79.30;5.50;99481.00;;;;344539;28;88136;-93
2021/04/06 00:53:22;;;;;;;3.08;1.20;;;5.30;79.40;5.60;99488.00;;;;343167;28;83620;-94
2021/04/06 00:53:55;;;;;;;3.30;1.00;;;5.30;79.70;5.60;99491.00;;;;344835;28;88251;-93
2021/04/06 00:54:08;;;;;;;5.70;2.22;;;5.40;80.00;5.60;99501.00;;;;343333;28;84056;-93
2021/04/06 00:54:21;;;;;;;6.40;1.90;;;5.30;80.00;5.60;99482.00;;;;341917;28;88359;-93
2021/04/06 00:54:35;;;;;;;4.80;1.00;;;5.30;80.10;5.50;99488.00;;;;344839;28;83793;-95
2021/04/06 00:54:52;;;;;;;3.85;1.00;;;5.30;79.50;5.30;99491.00;;;;340722;28;88357;-94
2021/04/06 00:55:04;;;;;;;3.17;1.33;;;5.20;78.90;5.10;99486.00;;;;343799;28;84730;-93
2021/04/06 00:55:19;;;;;;;3.55;1.45;;;5.10;78.70;5.30;99496.00;;;;344554;28;87095;-93
2021/04/06 00:55:39;;;;;;;3.63;1.48;;;5.10;79.00;5.30;99502.00;;;;343375;28;84439;-94
2021/04/06 00:55:50;;;;;;;3.85;1.17;;;5.10;79.30;5.20;99504.00;;;;346166;28;86845;-94
2021/04/06 00:56:11;;;;;;;4.90;1.30;;;5.00;79.30;5.20;99495.00;;;;344756;28;84149;-94
2021/04/06 00:56:28;;;;;;;4.78;1.75;;;5.00;79.60;5.20;99496.00;;;;343193;28;86155;-93
2021/04/06 00:56:41;;;;;;;4.60;1.88;;;5.00;79.90;5.30;99498.00;;;;341918;28;83927;-93
2021/04/06 00:56:57;;;;;;;3.28;1.42;;;5.00;80.10;5.40;99501.00;;;;342861;28;87138;-93
2021/04/06 00:57:08;;;;;;;3.05;0.98;;;5.00;80.00;5.40;99488.00;;;;341873;28;83974;-93
2021/04/06 00:57:25;;;;;;;3.67;1.08;;;5.00;80.20;5.30;99495.00;;;;341242;28;87076;-93
2021/04/06 00:57:40;;;;;;;3.63;1.40;;;5.00;80.30;5.40;99497.00;;;;341656;28;85005;-93
2021/04/06 00:57:52;;;;;;;3.35;1.48;;;5.00;80.40;5.40;99487.00;;;;344522;28;87077;-93
2021/04/06 00:58:13;;;;;;;4.60;1.80;;;5.00;80.50;5.40;99499.00;;;;340711;28;84854;-94
2021/04/06 00:58:25;;;;;;;4.90;1.63;;;5.00;80.30;5.40;99486.00;;;;343023;28;88065;-94
2021/04/06 00:58:36;;;;;;;4.28;1.50;;;5.00;80.40;5.40;99490.00;;;;347917;27;83512;-93
2021/04/06 00:58:52;;;;;;;4.85;1.70;;;5.00;80.30;5.40;99494.00;;;;342956;28;87155;-93
2021/04/06 00:59:06;;;;;;;4.85;1.55;;;5.00;80.30;5.50;99497.00;;;;341875;28;84733;-93
2021/04/06 00:59:22;;;;;;;5.10;1.48;;;5.10;80.60;5.50;99497.00;;;;344502;28;86642;-94
2021/04/06 00:59:34;;;;;;;4.03;1.30;;;5.10;80.60;5.50;99491.00;;;;341762;28;84945;-93
2021/04/06 01:00:24;;;;;;;4.63;1.23;;;5.10;80.40;5.60;99497.00;;;;343122;28;87029;-94
2021/04/06 01:00:36;;;;;;;3.65;1.33;;;5.10;80.40;5.60;99493.00;;;;340295;28;85331;-93
2021/04/06 01:00:47;;;;;;;3.22;1.13;;;5.20;80.10;5.50;99492.00;;;;343337;28;87013;-94
2021/04/06 01:01:01;;;;;;;4.80;1.13;;;5.20;79.60;5.40;99491.00;;;;345805;28;85000;-94
2021/04/06 01:01:13;;;;;;;5.22;1.20;;;5.20;79.20;5.40;99489.00;;;;342882;28;88183;-94
2021/04/06 01:01:47;;;;;;;5.47;1.52;;;5.10;78.90;5.40;99492.00;;;;345508;28;83629;-95
2021/04/06 01:02:07;;;;;;;7.93;2.45;;;5.10;78.60;5.50;99496.00;;;;343101;28;87904;-93
2021/04/06 01:02:19;;;;;;;7.40;2.04;;;5.10;79.00;5.40;99488.00;;;;343195;28;83625;-94
2021/04/06 01:02:30;;;;;;;6.53;1.70;;;5.10;79.00;5.30;99495.00;;;;343132;28;86092;-95
2021/04/06 01:03:16;;;;;;;4.65;1.63;;;5.10;78.60;5.40;99499.00;;;;344472;28;85215;-94
2021/04/06 01:03:28;;;;;;;4.55;1.73;;;5.00;78.80;5.40;99487.00;;;;345780;28;87263;-93
2021/04/06 01:03:40;;;;;;;5.00;1.67;;;5.00;78.80;5.30;99502.00;;;;343031;28;83880;-93
2021/04/06 01:03:51;;;;;;;5.60;1.63;;;5.00;78.70;5.10;99493.00;;;;341722;28;87855;-94
2021/04/06 01:04:10;;;;;;;6.57;2.53;;;5.00;78.60;5.30;99494.00;;;;344590;28;84735;-94
2021/04/06 01:04:23;;;;;;;6.88;2.58;;;5.00;78.80;5.30;99491.00;;;;345331;28;86978;-94
2021/04/06 01:04:38;;;;;;;5.86;1.92;;;5.00;78.90;5.20;99486.00;;;;343081;28;84322;-94
2021/04/06 01:04:51;;;;;;;4.15;1.60;;;5.00;78.90;5.30;99490.00;;;;340385;28;87242;-93
2021/04/06 01:05:07;;;;;;;3.88;1.42;;;5.00;78.90;5.40;99493.00;;;;340391;28;84424;-94
2021/04/06 01:05:18;;;;;;;3.33;1.08;;;5.00;79.00;5.40;99484.00;;;;342887;28;87836;-93
2021/04/06 01:05:33;;;;;;;3.53;1.13;;;5.00;79.20;5.20;99485.00;;;;344190;28;83800;-93
2021/04/06 01:06:00;;;;;;;3.65;1.20;;;4.90;78.80;5.30;99488.00;;;;344546;28;86106;-94
2021/04/06 01:06:11;;;;;;;3.58;1.33;;;4.90;78.80;5.30;99489.00;;;;344359;28;84099;-94
2021/04/06 01:06:22;;;;;;;5.25;1.90;;;5.00;78.90;5.30;99477.00;;;;344308;28;86182;-94
2021/04/06 01:07:12;;;;;;;5.80;2.33;;;5.00;78.90;5.30;99486.00;;;;341809;28;83446;-93
2021/04/06 01:07:23;;;;;;;3.13;1.05;;;5.00;79.00;5.20;99475.00;;;;343965;28;87797;-91